BISON46 KNDZ-KNDZ
Flight info
| Callsign | BISON46 |
|---|---|
| Flight time | 3h 11m |
| Altitude | 1500 |
| Route | IR21 VR1070 VR1056 VR1055 VR1052 VR1070 |
| Aircraft | V22/M-VD/C |
Departure
| Time | 2026-04-21 11:58 |
|---|---|
| Airport | Whiting Field Naval Air Station South Airport (KNDZ) |
Arrival
| Time | 2026-04-21 15:10 |
|---|---|
| Airport | Whiting Field Naval Air Station South Airport (KNDZ) |
| Time | Latitude | Longitude | Altitude | Speed | Heading |
|---|---|---|---|---|---|
| 2026-04-21 11:48 | 30.70076 | -87.01727 | 178 ft | 0 kts | 1° |
| 2026-04-21 11:55 | 30.70079 | -87.01729 | 178 ft | 3 kts | 338° |
| 2026-04-21 11:55 | 30.70081 | -87.01740 | 178 ft | 1 kts | 239° |
| 2026-04-21 11:55 | 30.70065 | -87.01751 | 178 ft | 3 kts | 206° |
| 2026-04-21 11:56 | 30.70054 | -87.01758 | 178 ft | 2 kts | 209° |
| 2026-04-21 11:56 | 30.70042 | -87.01791 | 177 ft | 6 kts | 267° |
| 2026-04-21 11:56 | 30.70043 | -87.01849 | 176 ft | 13 kts | 272° |
| 2026-04-21 11:56 | 30.70046 | -87.01929 | 175 ft | 9 kts | 272° |
| 2026-04-21 11:57 | 30.70049 | -87.01988 | 174 ft | 6 kts | 277° |
| 2026-04-21 11:57 | 30.70055 | -87.02020 | 173 ft | 2 kts | 287° |
| 2026-04-21 11:57 | 30.70056 | -87.02024 | 173 ft | 0 kts | 289° |
| 2026-04-21 11:58 | 30.70079 | -87.02056 | 174 ft | 17 kts | 317° |
| 2026-04-21 11:58 | 30.70328 | -87.02330 | 320 ft | 82 kts | 316° |
| 2026-04-21 11:58 | 30.70985 | -87.02845 | 744 ft | 152 kts | 348° |
| 2026-04-21 11:58 | 30.71959 | -87.02417 | 1240 ft | 164 kts | 44° |
| 2026-04-21 11:59 | 30.72574 | -87.01523 | 1328 ft | 122 kts | 61° |
| 2026-04-21 11:59 | 30.73039 | -87.00440 | 1587 ft | 179 kts | 65° |
| 2026-04-21 11:59 | 30.73601 | -86.98967 | 1755 ft | 225 kts | 66° |
| 2026-04-21 11:59 | 30.74237 | -86.97215 | 2003 ft | 243 kts | 69° |
| 2026-04-21 12:00 | 30.74946 | -86.95336 | 2006 ft | 265 kts | 66° |
| 2026-04-21 12:00 | 30.75781 | -86.93347 | 1762 ft | 281 kts | 64° |
| 2026-04-21 12:00 | 30.76667 | -86.91304 | 1630 ft | 284 kts | 64° |
| 2026-04-21 12:00 | 30.77567 | -86.89255 | 1555 ft | 284 kts | 64° |
| 2026-04-21 12:01 | 30.78469 | -86.87215 | 1524 ft | 283 kts | 63° |
| 2026-04-21 12:01 | 30.79368 | -86.85184 | 1508 ft | 282 kts | 63° |
| 2026-04-21 12:01 | 30.80267 | -86.83159 | 1517 ft | 282 kts | 63° |
| 2026-04-21 12:01 | 30.81167 | -86.81131 | 1513 ft | 282 kts | 63° |
| 2026-04-21 12:02 | 30.82066 | -86.79107 | 1513 ft | 282 kts | 63° |
| 2026-04-21 12:02 | 30.83866 | -86.75062 | 1533 ft | 281 kts | 63° |
| 2026-04-21 12:02 | 30.84765 | -86.73042 | 1537 ft | 282 kts | 63° |
| 2026-04-21 12:03 | 30.85667 | -86.71018 | 1531 ft | 282 kts | 63° |
| 2026-04-21 12:03 | 30.86570 | -86.68996 | 1528 ft | 281 kts | 63° |
| 2026-04-21 12:03 | 30.87471 | -86.66975 | 1527 ft | 281 kts | 63° |
| 2026-04-21 12:03 | 30.88373 | -86.64953 | 1528 ft | 281 kts | 63° |
| 2026-04-21 12:04 | 30.89275 | -86.62932 | 1528 ft | 281 kts | 63° |
| 2026-04-21 12:04 | 30.90177 | -86.60912 | 1533 ft | 281 kts | 63° |
| 2026-04-21 12:04 | 30.91079 | -86.58893 | 1538 ft | 281 kts | 63° |
| 2026-04-21 12:04 | 30.91985 | -86.56868 | 1533 ft | 282 kts | 63° |
| 2026-04-21 12:05 | 30.92882 | -86.54840 | 1537 ft | 282 kts | 63° |
| 2026-04-21 12:05 | 30.93772 | -86.52808 | 1529 ft | 282 kts | 63° |
| 2026-04-21 12:05 | 30.94664 | -86.50771 | 1534 ft | 282 kts | 63° |
| 2026-04-21 12:05 | 30.95555 | -86.48734 | 1529 ft | 282 kts | 63° |
| 2026-04-21 12:06 | 30.96446 | -86.46693 | 1528 ft | 282 kts | 63° |
| 2026-04-21 12:06 | 30.97338 | -86.44652 | 1531 ft | 282 kts | 63° |
| 2026-04-21 12:06 | 30.98227 | -86.42613 | 1530 ft | 282 kts | 63° |
| 2026-04-21 12:06 | 30.99116 | -86.40576 | 1526 ft | 282 kts | 63° |
| 2026-04-21 12:07 | 31.00059 | -86.38631 | 1512 ft | 278 kts | 52° |
| 2026-04-21 12:07 | 31.01661 | -86.37404 | 1502 ft | 283 kts | 18° |
| 2026-04-21 12:07 | 31.03619 | -86.37464 | 1514 ft | 288 kts | 344° |
| 2026-04-21 12:07 | 31.05421 | -86.38456 | 1532 ft | 288 kts | 334° |
| 2026-04-21 12:08 | 31.07188 | -86.39589 | 1539 ft | 291 kts | 332° |
| 2026-04-21 12:08 | 31.08941 | -86.40773 | 1542 ft | 292 kts | 331° |
| 2026-04-21 12:08 | 31.10694 | -86.41985 | 1537 ft | 293 kts | 331° |
| 2026-04-21 12:08 | 31.12445 | -86.43206 | 1534 ft | 293 kts | 331° |
| 2026-04-21 12:09 | 31.14195 | -86.44433 | 1526 ft | 293 kts | 331° |
| 2026-04-21 12:09 | 31.15943 | -86.45661 | 1520 ft | 293 kts | 331° |
| 2026-04-21 12:09 | 31.17691 | -86.46889 | 1528 ft | 293 kts | 331° |
| 2026-04-21 12:09 | 31.19440 | -86.48121 | 1525 ft | 293 kts | 331° |
| 2026-04-21 12:10 | 31.21190 | -86.49347 | 1524 ft | 294 kts | 331° |
| 2026-04-21 12:10 | 31.22943 | -86.50574 | 1523 ft | 294 kts | 331° |
| 2026-04-21 12:10 | 31.24696 | -86.51800 | 1518 ft | 294 kts | 331° |
| 2026-04-21 12:10 | 31.26452 | -86.53027 | 1517 ft | 294 kts | 331° |
| 2026-04-21 12:11 | 31.28207 | -86.54250 | 1519 ft | 294 kts | 331° |
| 2026-04-21 12:11 | 31.29964 | -86.55473 | 1511 ft | 294 kts | 331° |
| 2026-04-21 12:11 | 31.31716 | -86.56695 | 1515 ft | 294 kts | 331° |
| 2026-04-21 12:11 | 31.33478 | -86.57924 | 1514 ft | 295 kts | 331° |
| 2026-04-21 12:12 | 31.35242 | -86.59152 | 1512 ft | 295 kts | 331° |
| 2026-04-21 12:12 | 31.37007 | -86.60381 | 1500 ft | 295 kts | 331° |
| 2026-04-21 12:12 | 31.38773 | -86.61608 | 1497 ft | 295 kts | 331° |
| 2026-04-21 12:12 | 31.40538 | -86.62834 | 1489 ft | 295 kts | 331° |
| 2026-04-21 12:13 | 31.42306 | -86.64060 | 1506 ft | 296 kts | 331° |
| 2026-04-21 12:13 | 31.44076 | -86.65289 | 1508 ft | 296 kts | 331° |
| 2026-04-21 12:13 | 31.45843 | -86.66517 | 1512 ft | 295 kts | 331° |
| 2026-04-21 12:13 | 31.47498 | -86.67669 | 1503 ft | 256 kts | 331° |
| 2026-04-21 12:14 | 31.48973 | -86.68702 | 1461 ft | 237 kts | 331° |
| 2026-04-21 12:14 | 31.50425 | -86.69715 | 1474 ft | 241 kts | 331° |
| 2026-04-21 12:14 | 31.51909 | -86.70743 | 1490 ft | 251 kts | 332° |
| 2026-04-21 12:14 | 31.53569 | -86.71244 | 1476 ft | 250 kts | 6° |
| 2026-04-21 12:15 | 31.55151 | -86.70495 | 1491 ft | 246 kts | 34° |
| 2026-04-21 12:15 | 31.56567 | -86.69339 | 1493 ft | 250 kts | 37° |
| 2026-04-21 12:15 | 31.57974 | -86.68114 | 1484 ft | 254 kts | 38° |
| 2026-04-21 12:15 | 31.59375 | -86.66853 | 1445 ft | 249 kts | 39° |
| 2026-04-21 12:16 | 31.60681 | -86.65665 | 1441 ft | 242 kts | 39° |
| 2026-04-21 12:16 | 31.61952 | -86.64501 | 1436 ft | 235 kts | 39° |
| 2026-04-21 12:16 | 31.63215 | -86.63343 | 1431 ft | 228 kts | 39° |
| 2026-04-21 12:16 | 31.64497 | -86.62166 | 1491 ft | 233 kts | 39° |
| 2026-04-21 12:17 | 31.65761 | -86.61004 | 1491 ft | 230 kts | 39° |
| 2026-04-21 12:17 | 31.67018 | -86.59861 | 1497 ft | 228 kts | 38° |
| 2026-04-21 12:17 | 31.68314 | -86.58761 | 1503 ft | 229 kts | 39° |
| 2026-04-21 12:17 | 31.69499 | -86.57597 | 1509 ft | 222 kts | 41° |
| 2026-04-21 12:18 | 31.70749 | -86.56374 | 1527 ft | 251 kts | 40° |
| 2026-04-21 12:18 | 31.72160 | -86.55023 | 1536 ft | 270 kts | 40° |
| 2026-04-21 12:18 | 31.73549 | -86.53715 | 1516 ft | 237 kts | 39° |
| 2026-04-21 12:18 | 31.74859 | -86.52487 | 1515 ft | 243 kts | 39° |
| 2026-04-21 12:19 | 31.76191 | -86.51241 | 1510 ft | 246 kts | 39° |
| 2026-04-21 12:19 | 31.77536 | -86.49988 | 1516 ft | 248 kts | 39° |
| 2026-04-21 12:19 | 31.78889 | -86.48728 | 1518 ft | 249 kts | 39° |
| 2026-04-21 12:19 | 31.80247 | -86.47467 | 1527 ft | 249 kts | 39° |
| 2026-04-21 12:20 | 31.81608 | -86.46203 | 1520 ft | 250 kts | 39° |
| 2026-04-21 12:20 | 31.82968 | -86.44936 | 1507 ft | 250 kts | 39° |
| 2026-04-21 12:20 | 31.84332 | -86.43666 | 1511 ft | 250 kts | 39° |
| 2026-04-21 12:20 | 31.85694 | -86.42398 | 1508 ft | 250 kts | 39° |
| 2026-04-21 12:21 | 31.87059 | -86.41132 | 1506 ft | 249 kts | 39° |
| 2026-04-21 12:21 | 31.88354 | -86.39934 | 1485 ft | 228 kts | 39° |
| 2026-04-21 12:21 | 31.89579 | -86.38806 | 1481 ft | 227 kts | 39° |
| 2026-04-21 12:21 | 31.90849 | -86.37630 | 1488 ft | 234 kts | 39° |
| 2026-04-21 12:22 | 31.92133 | -86.36436 | 1501 ft | 237 kts | 39° |
| 2026-04-21 12:22 | 31.93430 | -86.35232 | 1498 ft | 238 kts | 39° |
| 2026-04-21 12:22 | 31.94736 | -86.34022 | 1495 ft | 239 kts | 39° |
| 2026-04-21 12:22 | 31.96047 | -86.32811 | 1516 ft | 240 kts | 39° |
| 2026-04-21 12:23 | 31.97359 | -86.31601 | 1509 ft | 240 kts | 39° |
| 2026-04-21 12:23 | 31.98672 | -86.30389 | 1511 ft | 240 kts | 39° |
| 2026-04-21 12:23 | 31.99985 | -86.29176 | 1505 ft | 240 kts | 39° |
| 2026-04-21 12:23 | 32.01299 | -86.27961 | 1511 ft | 240 kts | 39° |
| 2026-04-21 12:24 | 32.02615 | -86.26747 | 1525 ft | 241 kts | 39° |
| 2026-04-21 12:24 | 32.03937 | -86.25526 | 1527 ft | 242 kts | 39° |
| 2026-04-21 12:24 | 32.05260 | -86.24302 | 1524 ft | 242 kts | 39° |
| 2026-04-21 12:24 | 32.06585 | -86.23084 | 1528 ft | 242 kts | 39° |
| 2026-04-21 12:25 | 32.07913 | -86.21862 | 1533 ft | 242 kts | 39° |
| 2026-04-21 12:25 | 32.09242 | -86.20639 | 1531 ft | 241 kts | 38° |
| 2026-04-21 12:25 | 32.10699 | -86.19716 | 1526 ft | 239 kts | 24° |
| 2026-04-21 12:25 | 32.12246 | -86.18969 | 1520 ft | 241 kts | 22° |
| 2026-04-21 12:26 | 32.13812 | -86.18242 | 1531 ft | 242 kts | 22° |
| 2026-04-21 12:26 | 32.15386 | -86.17521 | 1526 ft | 243 kts | 22° |
| 2026-04-21 12:26 | 32.16966 | -86.16795 | 1527 ft | 244 kts | 22° |
| 2026-04-21 12:26 | 32.18548 | -86.16067 | 1522 ft | 244 kts | 22° |
| 2026-04-21 12:27 | 32.20127 | -86.15342 | 1520 ft | 244 kts | 22° |
| 2026-04-21 12:27 | 32.21709 | -86.14618 | 1522 ft | 244 kts | 22° |
| 2026-04-21 12:27 | 32.23292 | -86.13893 | 1520 ft | 244 kts | 21° |
| 2026-04-21 12:27 | 32.24873 | -86.13169 | 1518 ft | 244 kts | 22° |
| 2026-04-21 12:28 | 32.26455 | -86.12445 | 1512 ft | 244 kts | 21° |
| 2026-04-21 12:28 | 32.28038 | -86.11719 | 1524 ft | 244 kts | 22° |
| 2026-04-21 12:28 | 32.29599 | -86.11001 | 1519 ft | 244 kts | 21° |
| 2026-04-21 12:28 | 32.31201 | -86.10255 | 1520 ft | 244 kts | 21° |
| 2026-04-21 12:29 | 32.32761 | -86.09525 | 1519 ft | 245 kts | 21° |
| 2026-04-21 12:29 | 32.34344 | -86.08785 | 1517 ft | 244 kts | 21° |
| 2026-04-21 12:29 | 32.35925 | -86.08046 | 1517 ft | 244 kts | 21° |
| 2026-04-21 12:29 | 32.37507 | -86.07306 | 1518 ft | 245 kts | 21° |
| 2026-04-21 12:30 | 32.39092 | -86.06564 | 1511 ft | 245 kts | 22° |
| 2026-04-21 12:30 | 32.40674 | -86.05824 | 1518 ft | 245 kts | 21° |
| 2026-04-21 12:30 | 32.42260 | -86.05082 | 1522 ft | 245 kts | 22° |
| 2026-04-21 12:30 | 32.43845 | -86.04341 | 1519 ft | 245 kts | 21° |
| 2026-04-21 12:31 | 32.45428 | -86.03602 | 1504 ft | 245 kts | 21° |
| 2026-04-21 12:31 | 32.47011 | -86.02862 | 1510 ft | 244 kts | 21° |
| 2026-04-21 12:31 | 32.48593 | -86.02122 | 1510 ft | 244 kts | 21° |
| 2026-04-21 12:31 | 32.50173 | -86.01385 | 1513 ft | 244 kts | 21° |
| 2026-04-21 12:32 | 32.51755 | -86.00646 | 1512 ft | 245 kts | 21° |
| 2026-04-21 12:32 | 32.53336 | -85.99909 | 1509 ft | 244 kts | 21° |
| 2026-04-21 12:32 | 32.54917 | -85.99170 | 1510 ft | 244 kts | 21° |
| 2026-04-21 12:32 | 32.56497 | -85.98429 | 1517 ft | 244 kts | 21° |
| 2026-04-21 12:33 | 32.58070 | -85.97684 | 1517 ft | 244 kts | 21° |
| 2026-04-21 12:33 | 32.59645 | -85.96937 | 1518 ft | 244 kts | 21° |
| 2026-04-21 12:33 | 32.61217 | -85.96190 | 1519 ft | 244 kts | 21° |
| 2026-04-21 12:33 | 32.62791 | -85.95444 | 1522 ft | 243 kts | 21° |
| 2026-04-21 12:34 | 32.64363 | -85.94699 | 1518 ft | 243 kts | 21° |
| 2026-04-21 12:34 | 32.65938 | -85.93953 | 1526 ft | 244 kts | 21° |
| 2026-04-21 12:34 | 32.67512 | -85.93201 | 1529 ft | 243 kts | 22° |
| 2026-04-21 12:34 | 32.69054 | -85.92389 | 1531 ft | 243 kts | 24° |
| 2026-04-21 12:35 | 32.70641 | -85.91551 | 1540 ft | 260 kts | 24° |
| 2026-04-21 12:35 | 32.72343 | -85.90659 | 1548 ft | 274 kts | 24° |
| 2026-04-21 12:35 | 32.74109 | -85.89737 | 1548 ft | 279 kts | 23° |
| 2026-04-21 12:35 | 32.75910 | -85.88796 | 1546 ft | 286 kts | 24° |
| 2026-04-21 12:36 | 32.77744 | -85.87839 | 1544 ft | 289 kts | 24° |
| 2026-04-21 12:36 | 32.79584 | -85.86878 | 1546 ft | 290 kts | 24° |
| 2026-04-21 12:36 | 32.81431 | -85.85914 | 1543 ft | 290 kts | 24° |
| 2026-04-21 12:36 | 32.83277 | -85.84947 | 1542 ft | 290 kts | 24° |
| 2026-04-21 12:37 | 32.85095 | -85.83991 | 1541 ft | 289 kts | 23° |
| 2026-04-21 12:37 | 32.86937 | -85.83018 | 1534 ft | 289 kts | 23° |
| 2026-04-21 12:37 | 32.88778 | -85.82048 | 1539 ft | 289 kts | 23° |
| 2026-04-21 12:37 | 32.90618 | -85.81076 | 1540 ft | 289 kts | 24° |
| 2026-04-21 12:38 | 32.92460 | -85.80106 | 1533 ft | 290 kts | 23° |
| 2026-04-21 12:38 | 32.94302 | -85.79133 | 1540 ft | 290 kts | 24° |
| 2026-04-21 12:38 | 32.96145 | -85.78162 | 1539 ft | 290 kts | 23° |
| 2026-04-21 12:38 | 32.97987 | -85.77188 | 1539 ft | 290 kts | 24° |
| 2026-04-21 12:39 | 32.99831 | -85.76216 | 1536 ft | 289 kts | 23° |
| 2026-04-21 12:39 | 33.01671 | -85.75245 | 1536 ft | 289 kts | 23° |
| 2026-04-21 12:39 | 33.03514 | -85.74275 | 1535 ft | 289 kts | 23° |
| 2026-04-21 12:39 | 33.04734 | -85.73630 | 1529 ft | 289 kts | 23° |
| 2026-04-21 12:40 | 33.06573 | -85.72661 | 1528 ft | 289 kts | 24° |
| 2026-04-21 12:40 | 33.08413 | -85.71686 | 1523 ft | 289 kts | 23° |
| 2026-04-21 12:40 | 33.10258 | -85.70712 | 1525 ft | 290 kts | 24° |
| 2026-04-21 12:40 | 33.12099 | -85.69738 | 1525 ft | 290 kts | 23° |
| 2026-04-21 12:41 | 33.13942 | -85.68765 | 1523 ft | 290 kts | 23° |
| 2026-04-21 12:41 | 33.15784 | -85.67792 | 1527 ft | 290 kts | 23° |
| 2026-04-21 12:41 | 33.17629 | -85.66817 | 1517 ft | 290 kts | 23° |
| 2026-04-21 12:41 | 33.19472 | -85.65843 | 1527 ft | 290 kts | 23° |
| 2026-04-21 12:42 | 33.21315 | -85.64869 | 1530 ft | 290 kts | 23° |
| 2026-04-21 12:42 | 33.23164 | -85.63891 | 1533 ft | 290 kts | 23° |
| 2026-04-21 12:42 | 33.25013 | -85.62915 | 1531 ft | 291 kts | 23° |
| 2026-04-21 12:42 | 33.26860 | -85.61938 | 1532 ft | 290 kts | 23° |
| 2026-04-21 12:43 | 33.28697 | -85.60967 | 1648 ft | 286 kts | 23° |
| 2026-04-21 12:43 | 33.30512 | -85.60004 | 1852 ft | 285 kts | 23° |
| 2026-04-21 12:43 | 33.32321 | -85.59039 | 2055 ft | 285 kts | 23° |
| 2026-04-21 12:43 | 33.34130 | -85.58066 | 2258 ft | 285 kts | 23° |
| 2026-04-21 12:44 | 33.35951 | -85.57090 | 2414 ft | 288 kts | 23° |
| 2026-04-21 12:44 | 33.37791 | -85.56104 | 2483 ft | 292 kts | 23° |
| 2026-04-21 12:44 | 33.39653 | -85.55110 | 2517 ft | 294 kts | 23° |
| 2026-04-21 12:44 | 33.41525 | -85.54108 | 2538 ft | 295 kts | 23° |
| 2026-04-21 12:45 | 33.43404 | -85.53105 | 2537 ft | 296 kts | 23° |
| 2026-04-21 12:45 | 33.45291 | -85.52101 | 2543 ft | 297 kts | 23° |
| 2026-04-21 12:45 | 33.47178 | -85.51096 | 2548 ft | 297 kts | 23° |
| 2026-04-21 12:45 | 33.49062 | -85.50090 | 2540 ft | 297 kts | 23° |
| 2026-04-21 12:46 | 33.50951 | -85.49083 | 2542 ft | 297 kts | 23° |
| 2026-04-21 12:46 | 33.52837 | -85.48079 | 2543 ft | 297 kts | 23° |
| 2026-04-21 12:46 | 33.54726 | -85.47074 | 2541 ft | 297 kts | 23° |
| 2026-04-21 12:46 | 33.56613 | -85.46069 | 2549 ft | 297 kts | 23° |
| 2026-04-21 12:47 | 33.58503 | -85.45064 | 2545 ft | 297 kts | 23° |
| 2026-04-21 12:47 | 33.60392 | -85.44059 | 2540 ft | 297 kts | 23° |
| 2026-04-21 12:47 | 33.62280 | -85.43047 | 2540 ft | 297 kts | 23° |
| 2026-04-21 12:47 | 33.64183 | -85.42118 | 2537 ft | 292 kts | 13° |
| 2026-04-21 12:48 | 33.66182 | -85.42157 | 2551 ft | 286 kts | 350° |
| 2026-04-21 12:48 | 33.68114 | -85.42630 | 2553 ft | 289 kts | 347° |
| 2026-04-21 12:48 | 33.70113 | -85.43174 | 2548 ft | 292 kts | 346° |
| 2026-04-21 12:48 | 33.72065 | -85.43737 | 2543 ft | 293 kts | 346° |
| 2026-04-21 12:49 | 33.74044 | -85.44326 | 2537 ft | 293 kts | 345° |
| 2026-04-21 12:49 | 33.76027 | -85.44925 | 2537 ft | 294 kts | 345° |
| 2026-04-21 12:49 | 33.78007 | -85.45525 | 2534 ft | 294 kts | 345° |
| 2026-04-21 12:49 | 33.79991 | -85.46130 | 2532 ft | 294 kts | 345° |
| 2026-04-21 12:50 | 33.81973 | -85.46728 | 2528 ft | 293 kts | 345° |
| 2026-04-21 12:50 | 33.83955 | -85.47329 | 2529 ft | 294 kts | 345° |
| 2026-04-21 12:50 | 33.85940 | -85.47935 | 2537 ft | 294 kts | 345° |
| 2026-04-21 12:50 | 33.87920 | -85.48541 | 2533 ft | 293 kts | 345° |
| 2026-04-21 12:51 | 33.89896 | -85.49143 | 2531 ft | 293 kts | 345° |
| 2026-04-21 12:51 | 33.91874 | -85.49744 | 2539 ft | 293 kts | 345° |
| 2026-04-21 12:51 | 33.93856 | -85.50342 | 2526 ft | 294 kts | 345° |
| 2026-04-21 12:51 | 33.95838 | -85.50940 | 2540 ft | 294 kts | 345° |
| 2026-04-21 12:52 | 33.97823 | -85.51539 | 2536 ft | 294 kts | 345° |
| 2026-04-21 12:52 | 33.99807 | -85.52137 | 2538 ft | 294 kts | 345° |
| 2026-04-21 12:52 | 34.01792 | -85.52738 | 2545 ft | 293 kts | 345° |
| 2026-04-21 12:52 | 34.03772 | -85.53336 | 2529 ft | 293 kts | 345° |
| 2026-04-21 12:53 | 34.05749 | -85.53932 | 2537 ft | 294 kts | 345° |
| 2026-04-21 12:53 | 34.07735 | -85.54531 | 2545 ft | 293 kts | 345° |
| 2026-04-21 12:53 | 34.09712 | -85.55125 | 2545 ft | 293 kts | 345° |
| 2026-04-21 12:53 | 34.11684 | -85.55722 | 2569 ft | 291 kts | 345° |
| 2026-04-21 12:54 | 34.13662 | -85.56260 | 2574 ft | 293 kts | 348° |
| 2026-04-21 12:54 | 34.15681 | -85.56661 | 2573 ft | 295 kts | 350° |
| 2026-04-21 12:54 | 34.17712 | -85.57024 | 2564 ft | 295 kts | 351° |
| 2026-04-21 12:54 | 34.19744 | -85.57374 | 2544 ft | 295 kts | 351° |
| 2026-04-21 12:55 | 34.21776 | -85.57719 | 2534 ft | 295 kts | 351° |
| 2026-04-21 12:55 | 34.23807 | -85.58059 | 2536 ft | 295 kts | 351° |
| 2026-04-21 12:55 | 34.25833 | -85.58399 | 2556 ft | 294 kts | 351° |
| 2026-04-21 12:55 | 34.27854 | -85.58742 | 2547 ft | 293 kts | 351° |
| 2026-04-21 12:56 | 34.29878 | -85.59079 | 2546 ft | 293 kts | 351° |
| 2026-04-21 12:56 | 34.31875 | -85.59403 | 2555 ft | 294 kts | 351° |
| 2026-04-21 12:56 | 34.33902 | -85.59743 | 2545 ft | 295 kts | 351° |
| 2026-04-21 12:56 | 34.35933 | -85.60083 | 2538 ft | 295 kts | 351° |
| 2026-04-21 12:57 | 34.37966 | -85.60423 | 2536 ft | 295 kts | 351° |
| 2026-04-21 12:57 | 34.39995 | -85.60766 | 2542 ft | 294 kts | 351° |
| 2026-04-21 12:57 | 34.42028 | -85.61104 | 2537 ft | 295 kts | 351° |
| 2026-04-21 12:57 | 34.44061 | -85.61438 | 2530 ft | 295 kts | 351° |
| 2026-04-21 12:58 | 34.46095 | -85.61778 | 2533 ft | 295 kts | 351° |
| 2026-04-21 12:58 | 34.48131 | -85.62109 | 2539 ft | 295 kts | 351° |
| 2026-04-21 12:58 | 34.50170 | -85.62439 | 2537 ft | 296 kts | 351° |
| 2026-04-21 12:58 | 34.52203 | -85.62771 | 2539 ft | 295 kts | 351° |
| 2026-04-21 12:59 | 34.54243 | -85.63105 | 2550 ft | 296 kts | 351° |
| 2026-04-21 12:59 | 34.56279 | -85.63425 | 2542 ft | 292 kts | 353° |
| 2026-04-21 12:59 | 34.58262 | -85.62995 | 2509 ft | 296 kts | 25° |
| 2026-04-21 12:59 | 34.59764 | -85.61311 | 2519 ft | 300 kts | 57° |
| 2026-04-21 13:00 | 34.60314 | -85.58893 | 2526 ft | 302 kts | 89° |
| 2026-04-21 13:00 | 34.60003 | -85.56409 | 2635 ft | 297 kts | 102° |
| 2026-04-21 13:00 | 34.59535 | -85.53957 | 2777 ft | 299 kts | 104° |
| 2026-04-21 13:00 | 34.59025 | -85.51506 | 2902 ft | 300 kts | 104° |
| 2026-04-21 13:01 | 34.58624 | -85.49043 | 3049 ft | 295 kts | 94° |
| 2026-04-21 13:01 | 34.58530 | -85.46542 | 3259 ft | 298 kts | 91° |
| 2026-04-21 13:01 | 34.58490 | -85.44016 | 3422 ft | 301 kts | 91° |
| 2026-04-21 13:01 | 34.58465 | -85.41457 | 3483 ft | 305 kts | 90° |
| 2026-04-21 13:02 | 34.58442 | -85.38885 | 3501 ft | 306 kts | 90° |
| 2026-04-21 13:02 | 34.58427 | -85.36299 | 3523 ft | 307 kts | 90° |
| 2026-04-21 13:02 | 34.58394 | -85.31094 | 3546 ft | 309 kts | 90° |
| 2026-04-21 13:03 | 34.58381 | -85.28478 | 3547 ft | 310 kts | 90° |
| 2026-04-21 13:03 | 34.58368 | -85.25860 | 3550 ft | 310 kts | 90° |
| 2026-04-21 13:03 | 34.58356 | -85.23239 | 3550 ft | 310 kts | 90° |
| 2026-04-21 13:03 | 34.58345 | -85.20620 | 3546 ft | 311 kts | 90° |
| 2026-04-21 13:04 | 34.58335 | -85.18000 | 3547 ft | 310 kts | 90° |
| 2026-04-21 13:04 | 34.58326 | -85.15379 | 3548 ft | 311 kts | 90° |
| 2026-04-21 13:04 | 34.58318 | -85.12760 | 3552 ft | 311 kts | 90° |
| 2026-04-21 13:04 | 34.58311 | -85.10135 | 3554 ft | 311 kts | 90° |
| 2026-04-21 13:05 | 34.58305 | -85.07521 | 3562 ft | 310 kts | 90° |
| 2026-04-21 13:05 | 34.58295 | -85.04897 | 3561 ft | 310 kts | 90° |
| 2026-04-21 13:05 | 34.58281 | -85.02288 | 3562 ft | 310 kts | 90° |
| 2026-04-21 13:05 | 34.58266 | -84.99682 | 3646 ft | 308 kts | 90° |
| 2026-04-21 13:06 | 34.58248 | -84.97090 | 3769 ft | 306 kts | 90° |
| 2026-04-21 13:06 | 34.58229 | -84.94506 | 3894 ft | 306 kts | 90° |
| 2026-04-21 13:06 | 34.58209 | -84.91921 | 4017 ft | 307 kts | 90° |
| 2026-04-21 13:06 | 34.58188 | -84.89333 | 4141 ft | 307 kts | 90° |
| 2026-04-21 13:07 | 34.58166 | -84.86771 | 4265 ft | 308 kts | 90° |
| 2026-04-21 13:07 | 34.58143 | -84.84141 | 4406 ft | 308 kts | 90° |
| 2026-04-21 13:07 | 34.58119 | -84.81570 | 4496 ft | 310 kts | 90° |
| 2026-04-21 13:07 | 34.58094 | -84.78945 | 4536 ft | 312 kts | 90° |
| 2026-04-21 13:08 | 34.58069 | -84.76310 | 4554 ft | 313 kts | 90° |
| 2026-04-21 13:08 | 34.58045 | -84.73668 | 4560 ft | 314 kts | 90° |
| 2026-04-21 13:08 | 34.58021 | -84.71018 | 4562 ft | 314 kts | 90° |
| 2026-04-21 13:08 | 34.57997 | -84.68367 | 4561 ft | 314 kts | 89° |
| 2026-04-21 13:09 | 34.57972 | -84.65720 | 4561 ft | 313 kts | 89° |
| 2026-04-21 13:09 | 34.57933 | -84.63078 | 4558 ft | 314 kts | 89° |
| 2026-04-21 13:09 | 34.57891 | -84.60425 | 4551 ft | 314 kts | 90° |
| 2026-04-21 13:09 | 34.57884 | -84.57788 | 4547 ft | 309 kts | 84° |
| 2026-04-21 13:10 | 34.58621 | -84.55391 | 4526 ft | 305 kts | 52° |
| 2026-04-21 13:10 | 34.60069 | -84.53560 | 4541 ft | 301 kts | 41° |
| 2026-04-21 13:10 | 34.61624 | -84.51843 | 4554 ft | 304 kts | 40° |
| 2026-04-21 13:10 | 34.63215 | -84.50146 | 4547 ft | 305 kts | 39° |
| 2026-04-21 13:11 | 34.64826 | -84.48461 | 4550 ft | 306 kts | 39° |
| 2026-04-21 13:11 | 34.66445 | -84.46783 | 4547 ft | 306 kts | 38° |
| 2026-04-21 13:11 | 34.68073 | -84.45104 | 4549 ft | 307 kts | 38° |
| 2026-04-21 13:11 | 34.69684 | -84.43445 | 4786 ft | 301 kts | 38° |
| 2026-04-21 13:12 | 34.71273 | -84.41804 | 5043 ft | 299 kts | 38° |
| 2026-04-21 13:12 | 34.72854 | -84.40164 | 5283 ft | 298 kts | 38° |
| 2026-04-21 13:12 | 34.74438 | -84.38529 | 5535 ft | 300 kts | 38° |
| 2026-04-21 13:12 | 34.76046 | -84.36867 | 5547 ft | 307 kts | 38° |
| 2026-04-21 13:13 | 34.77683 | -84.35172 | 5510 ft | 310 kts | 38° |
| 2026-04-21 13:13 | 34.79328 | -84.33474 | 5487 ft | 310 kts | 38° |
| 2026-04-21 13:13 | 34.80947 | -84.31804 | 5486 ft | 309 kts | 38° |
| 2026-04-21 13:13 | 34.82613 | -84.30088 | 5487 ft | 310 kts | 38° |
| 2026-04-21 13:14 | 34.84257 | -84.28395 | 5488 ft | 309 kts | 38° |
| 2026-04-21 13:14 | 34.85866 | -84.26719 | 5478 ft | 308 kts | 38° |
| 2026-04-21 13:14 | 34.87487 | -84.25014 | 5466 ft | 308 kts | 38° |
| 2026-04-21 13:14 | 34.89107 | -84.23306 | 5480 ft | 308 kts | 38° |
| 2026-04-21 13:15 | 34.90731 | -84.21594 | 5483 ft | 308 kts | 38° |
| 2026-04-21 13:15 | 34.92351 | -84.19886 | 5480 ft | 308 kts | 38° |
| 2026-04-21 13:15 | 34.93970 | -84.18178 | 5481 ft | 308 kts | 38° |
| 2026-04-21 13:15 | 34.95573 | -84.16489 | 5709 ft | 302 kts | 38° |
| 2026-04-21 13:16 | 34.97156 | -84.14822 | 5956 ft | 300 kts | 38° |
| 2026-04-21 13:16 | 34.98733 | -84.13162 | 6212 ft | 300 kts | 38° |
| 2026-04-21 13:16 | 35.00324 | -84.11489 | 6366 ft | 304 kts | 38° |
| 2026-04-21 13:16 | 35.01933 | -84.09803 | 6426 ft | 306 kts | 38° |
| 2026-04-21 13:17 | 35.03556 | -84.08105 | 6449 ft | 308 kts | 38° |
| 2026-04-21 13:17 | 35.05181 | -84.06406 | 6463 ft | 295 kts | 38° |
| 2026-04-21 13:17 | 35.06618 | -84.04885 | 6445 ft | 255 kts | 38° |
| 2026-04-21 13:17 | 35.07895 | -84.03511 | 6445 ft | 236 kts | 38° |
| 2026-04-21 13:18 | 35.09112 | -84.02207 | 6459 ft | 242 kts | 38° |
| 2026-04-21 13:18 | 35.10459 | -84.00780 | 6486 ft | 253 kts | 38° |
| 2026-04-21 13:18 | 35.11798 | -83.99347 | 6485 ft | 249 kts | 38° |
| 2026-04-21 13:18 | 35.13135 | -83.97917 | 6475 ft | 249 kts | 38° |
| 2026-04-21 13:19 | 35.14472 | -83.96485 | 6467 ft | 252 kts | 38° |
| 2026-04-21 13:19 | 35.15788 | -83.95074 | 6513 ft | 255 kts | 38° |
| 2026-04-21 13:19 | 35.17137 | -83.93631 | 6518 ft | 259 kts | 38° |
| 2026-04-21 13:19 | 35.18466 | -83.92217 | 6525 ft | 254 kts | 38° |
| 2026-04-21 13:20 | 35.19358 | -83.91265 | 6521 ft | 258 kts | 38° |
| 2026-04-21 13:20 | 35.21116 | -83.89384 | 6564 ft | 251 kts | 38° |
| 2026-04-21 13:20 | 35.22434 | -83.87982 | 6690 ft | 251 kts | 38° |
| 2026-04-21 13:20 | 35.23752 | -83.86577 | 6797 ft | 252 kts | 37° |
| 2026-04-21 13:21 | 35.25071 | -83.85166 | 6921 ft | 251 kts | 37° |
| 2026-04-21 13:21 | 35.26351 | -83.83804 | 7068 ft | 240 kts | 38° |
| 2026-04-21 13:21 | 35.27635 | -83.82429 | 7201 ft | 244 kts | 38° |
| 2026-04-21 13:21 | 35.28902 | -83.81052 | 7329 ft | 243 kts | 38° |
| 2026-04-21 13:22 | 35.30170 | -83.79670 | 7420 ft | 245 kts | 38° |
| 2026-04-21 13:22 | 35.31448 | -83.78288 | 7460 ft | 246 kts | 38° |
| 2026-04-21 13:22 | 35.32741 | -83.76894 | 7486 ft | 249 kts | 38° |
| 2026-04-21 13:22 | 35.34050 | -83.75467 | 7357 ft | 256 kts | 37° |
| 2026-04-21 13:23 | 35.35438 | -83.74057 | 7125 ft | 262 kts | 35° |
| 2026-04-21 13:23 | 35.36876 | -83.72755 | 6934 ft | 240 kts | 30° |
| 2026-04-21 13:23 | 35.38325 | -83.71971 | 6364 ft | 239 kts | 21° |
| 2026-04-21 13:23 | 35.39495 | -83.70626 | 5901 ft | 214 kts | 47° |
| 2026-04-21 13:24 | 35.40401 | -83.69342 | 5244 ft | 182 kts | 54° |
| 2026-04-21 13:24 | 35.41216 | -83.68046 | 4726 ft | 208 kts | 51° |
| 2026-04-21 13:24 | 35.41806 | -83.66563 | 4192 ft | 185 kts | 76° |
| 2026-04-21 13:24 | 35.41827 | -83.66447 | 4165 ft | 188 kts | 77° |
| 2026-04-21 13:25 | 35.41921 | -83.65891 | 4035 ft | 241 kts | 79° |
| 2026-04-21 13:25 | 35.41675 | -83.63970 | 3873 ft | 213 kts | 120° |
| 2026-04-21 13:26 | 35.40990 | -83.62684 | 3649 ft | 148 kts | 120° |
| 2026-04-21 13:26 | 35.40733 | -83.62044 | 3418 ft | 105 kts | 116° |
| 2026-04-21 13:26 | 35.40371 | -83.61406 | 2928 ft | 95 kts | 135° |
| 2026-04-21 13:26 | 35.39952 | -83.60891 | 2639 ft | 63 kts | 129° |
| 2026-04-21 13:27 | 35.39831 | -83.60709 | 2500 ft | 0 kts | 132° |
| 2026-04-21 13:27 | 35.39613 | -83.60394 | 3584 ft | 96 kts | 128° |
| 2026-04-21 13:27 | 35.39368 | -83.59702 | 3609 ft | 99 kts | 105° |
| 2026-04-21 13:27 | 35.39346 | -83.58950 | 3206 ft | 82 kts | 81° |
| 2026-04-21 13:28 | 35.39377 | -83.58406 | 2937 ft | 41 kts | 90° |
| 2026-04-21 13:28 | 35.39181 | -83.58397 | 2810 ft | 32 kts | 233° |
| 2026-04-21 13:28 | 35.39306 | -83.58525 | 2831 ft | 19 kts | 250° |
| 2026-04-21 13:28 | 35.39251 | -83.58444 | 2733 ft | 60 kts | 217° |
| 2026-04-21 13:29 | 35.38928 | -83.58202 | 2979 ft | 46 kts | 179° |
| 2026-04-21 13:29 | 35.38454 | -83.58017 | 3242 ft | 104 kts | 156° |
| 2026-04-21 13:29 | 35.37831 | -83.57632 | 3397 ft | 157 kts | 152° |
| 2026-04-21 13:29 | 35.37751 | -83.57580 | 3402 ft | 211 kts | 152° |
| 2026-04-21 13:30 | 35.36475 | -83.56695 | 3421 ft | 206 kts | 148° |
| 2026-04-21 13:30 | 35.35456 | -83.55547 | 3963 ft | 200 kts | 129° |
| 2026-04-21 13:30 | 35.34813 | -83.54039 | 4494 ft | 202 kts | 107° |
| 2026-04-21 13:30 | 35.34842 | -83.52170 | 4561 ft | 248 kts | 70° |
| 2026-04-21 13:31 | 35.35861 | -83.50401 | 4533 ft | 265 kts | 41° |
| 2026-04-21 13:31 | 35.37328 | -83.48990 | 4913 ft | 269 kts | 33° |
| 2026-04-21 13:31 | 35.38866 | -83.47769 | 5646 ft | 260 kts | 29° |
| 2026-04-21 13:31 | 35.40453 | -83.46306 | 4708 ft | 303 kts | 41° |
| 2026-04-21 13:32 | 35.41887 | -83.44464 | 4724 ft | 296 kts | 46° |
| 2026-04-21 13:32 | 35.43285 | -83.42676 | 5123 ft | 284 kts | 44° |
| 2026-04-21 13:32 | 35.44656 | -83.41008 | 5821 ft | 273 kts | 42° |
| 2026-04-21 13:32 | 35.45579 | -83.39071 | 6152 ft | 278 kts | 90° |
| 2026-04-21 13:33 | 35.44672 | -83.36980 | 6541 ft | 293 kts | 139° |
| 2026-04-21 13:33 | 35.42817 | -83.35984 | 6866 ft | 294 kts | 168° |
| 2026-04-21 13:33 | 35.40781 | -83.35392 | 7033 ft | 303 kts | 168° |
| 2026-04-21 13:33 | 35.38774 | -83.35216 | 7288 ft | 283 kts | 208° |
| 2026-04-21 13:34 | 35.37863 | -83.37132 | 7252 ft | 274 kts | 278° |
| 2026-04-21 13:34 | 35.38092 | -83.39513 | 6902 ft | 290 kts | 279° |
| 2026-04-21 13:34 | 35.38285 | -83.41954 | 6836 ft | 276 kts | 278° |
| 2026-04-21 13:34 | 35.38401 | -83.44204 | 6565 ft | 259 kts | 273° |
| 2026-04-21 13:35 | 35.38232 | -83.46357 | 6398 ft | 249 kts | 263° |
| 2026-04-21 13:35 | 35.37899 | -83.48451 | 5736 ft | 253 kts | 263° |
| 2026-04-21 13:35 | 35.37826 | -83.50640 | 4925 ft | 260 kts | 274° |
| 2026-04-21 13:35 | 35.38143 | -83.52830 | 4223 ft | 258 kts | 287° |
| 2026-04-21 13:36 | 35.38760 | -83.54819 | 4017 ft | 242 kts | 296° |
| 2026-04-21 13:36 | 35.39818 | -83.56302 | 4001 ft | 239 kts | 330° |
| 2026-04-21 13:36 | 35.41457 | -83.56751 | 4369 ft | 249 kts | 5° |
| 2026-04-21 13:36 | 35.42949 | -83.55806 | 4637 ft | 224 kts | 43° |
| 2026-04-21 13:37 | 35.43768 | -83.54062 | 4638 ft | 258 kts | 65° |
| 2026-04-21 13:37 | 35.44420 | -83.51908 | 4785 ft | 265 kts | 70° |
| 2026-04-21 13:37 | 35.44887 | -83.49952 | 4733 ft | 239 kts | 74° |
| 2026-04-21 13:37 | 35.45315 | -83.47812 | 4814 ft | 274 kts | 76° |
| 2026-04-21 13:38 | 35.45717 | -83.45489 | 5215 ft | 277 kts | 77° |
| 2026-04-21 13:38 | 35.46088 | -83.43192 | 4811 ft | 291 kts | 73° |
| 2026-04-21 13:38 | 35.47255 | -83.41291 | 4898 ft | 285 kts | 32° |
| 2026-04-21 13:38 | 35.49038 | -83.40570 | 5591 ft | 254 kts | 2° |
| 2026-04-21 13:39 | 35.50704 | -83.40910 | 6835 ft | 241 kts | 336° |
| 2026-04-21 13:39 | 35.51760 | -83.42431 | 7348 ft | 254 kts | 286° |
| 2026-04-21 13:39 | 35.51554 | -83.44687 | 7493 ft | 281 kts | 251° |
| 2026-04-21 13:39 | 35.50323 | -83.46665 | 7431 ft | 303 kts | 223° |
| 2026-04-21 13:40 | 35.48484 | -83.48051 | 6883 ft | 312 kts | 208° |
| 2026-04-21 13:40 | 35.46438 | -83.48873 | 6451 ft | 312 kts | 192° |
| 2026-04-21 13:40 | 35.44259 | -83.49114 | 5790 ft | 312 kts | 183° |
| 2026-04-21 13:40 | 35.42104 | -83.49281 | 5406 ft | 309 kts | 187° |
| 2026-04-21 13:41 | 35.39964 | -83.49499 | 5017 ft | 308 kts | 185° |
| 2026-04-21 13:41 | 35.37844 | -83.49582 | 4710 ft | 293 kts | 177° |
| 2026-04-21 13:41 | 35.35997 | -83.48993 | 5705 ft | 266 kts | 155° |
| 2026-04-21 13:41 | 35.34556 | -83.47586 | 6246 ft | 270 kts | 124° |
| 2026-04-21 13:42 | 35.33905 | -83.45388 | 6379 ft | 284 kts | 96° |
| 2026-04-21 13:42 | 35.33856 | -83.42873 | 5621 ft | 306 kts | 86° |
| 2026-04-21 13:42 | 35.34077 | -83.40274 | 5310 ft | 301 kts | 77° |
| 2026-04-21 13:42 | 35.34949 | -83.38176 | 6031 ft | 260 kts | 41° |
| 2026-04-21 13:43 | 35.36536 | -83.37451 | 6854 ft | 238 kts | 353° |
| 2026-04-21 13:43 | 35.37894 | -83.38500 | 7262 ft | 251 kts | 307° |
| 2026-04-21 13:43 | 35.38399 | -83.40607 | 7286 ft | 274 kts | 270° |
| 2026-04-21 13:43 | 35.38027 | -83.42887 | 7390 ft | 276 kts | 261° |
| 2026-04-21 13:44 | 35.37651 | -83.45232 | 7442 ft | 284 kts | 263° |
| 2026-04-21 13:44 | 35.37305 | -83.47639 | 7444 ft | 288 kts | 263° |
| 2026-04-21 13:44 | 35.36973 | -83.50063 | 7452 ft | 289 kts | 263° |
| 2026-04-21 13:44 | 35.36638 | -83.52499 | 7455 ft | 291 kts | 263° |
| 2026-04-21 13:45 | 35.36309 | -83.54946 | 7461 ft | 290 kts | 264° |
| 2026-04-21 13:45 | 35.35725 | -83.57284 | 7451 ft | 289 kts | 246° |
| 2026-04-21 13:45 | 35.34780 | -83.59475 | 7465 ft | 293 kts | 245° |
| 2026-04-21 13:45 | 35.33800 | -83.61671 | 7469 ft | 295 kts | 244° |
| 2026-04-21 13:46 | 35.32807 | -83.63870 | 7435 ft | 294 kts | 244° |
| 2026-04-21 13:46 | 35.31805 | -83.66038 | 7452 ft | 293 kts | 243° |
| 2026-04-21 13:46 | 35.30805 | -83.68218 | 7446 ft | 294 kts | 244° |
| 2026-04-21 13:46 | 35.29814 | -83.70367 | 7466 ft | 295 kts | 243° |
| 2026-04-21 13:47 | 35.28804 | -83.72555 | 7474 ft | 296 kts | 244° |
| 2026-04-21 13:47 | 35.27796 | -83.74748 | 7492 ft | 296 kts | 244° |
| 2026-04-21 13:47 | 35.26787 | -83.76946 | 7504 ft | 297 kts | 244° |
| 2026-04-21 13:47 | 35.25775 | -83.79157 | 7515 ft | 298 kts | 244° |
| 2026-04-21 13:48 | 35.24765 | -83.81366 | 7510 ft | 297 kts | 244° |
| 2026-04-21 13:48 | 35.23759 | -83.83571 | 7496 ft | 296 kts | 244° |
| 2026-04-21 13:48 | 35.22761 | -83.85770 | 7491 ft | 297 kts | 244° |
| 2026-04-21 13:48 | 35.21761 | -83.87972 | 7487 ft | 296 kts | 244° |
| 2026-04-21 13:49 | 35.20760 | -83.90175 | 7484 ft | 296 kts | 244° |
| 2026-04-21 13:49 | 35.19758 | -83.92371 | 7486 ft | 293 kts | 242° |
| 2026-04-21 13:49 | 35.18346 | -83.94170 | 7402 ft | 298 kts | 221° |
| 2026-04-21 13:49 | 35.16680 | -83.95733 | 7161 ft | 306 kts | 219° |
| 2026-04-21 13:50 | 35.14955 | -83.97272 | 6878 ft | 308 kts | 218° |
| 2026-04-21 13:50 | 35.13217 | -83.98793 | 6709 ft | 306 kts | 218° |
| 2026-04-21 13:50 | 35.11493 | -84.00291 | 6612 ft | 303 kts | 218° |
| 2026-04-21 13:50 | 35.09779 | -84.01782 | 6550 ft | 301 kts | 218° |
| 2026-04-21 13:51 | 35.08120 | -84.03333 | 6503 ft | 300 kts | 221° |
| 2026-04-21 13:51 | 35.06523 | -84.04967 | 6495 ft | 299 kts | 223° |
| 2026-04-21 13:51 | 35.04951 | -84.06621 | 6489 ft | 298 kts | 223° |
| 2026-04-21 13:51 | 35.03388 | -84.08289 | 6480 ft | 298 kts | 224° |
| 2026-04-21 13:52 | 35.01832 | -84.09959 | 6476 ft | 298 kts | 224° |
| 2026-04-21 13:52 | 35.00279 | -84.11628 | 6477 ft | 298 kts | 224° |
| 2026-04-21 13:52 | 34.98746 | -84.13275 | 6484 ft | 298 kts | 224° |
| 2026-04-21 13:52 | 34.97187 | -84.14952 | 6485 ft | 299 kts | 224° |
| 2026-04-21 13:53 | 34.95626 | -84.16631 | 6482 ft | 299 kts | 224° |
| 2026-04-21 13:53 | 34.94065 | -84.18312 | 6477 ft | 300 kts | 224° |
| 2026-04-21 13:53 | 34.92507 | -84.19997 | 6479 ft | 300 kts | 224° |
| 2026-04-21 13:53 | 34.90946 | -84.21686 | 6481 ft | 300 kts | 224° |
| 2026-04-21 13:54 | 34.89387 | -84.23372 | 6481 ft | 300 kts | 224° |
| 2026-04-21 13:54 | 34.87825 | -84.25061 | 6491 ft | 300 kts | 224° |
| 2026-04-21 13:54 | 34.86263 | -84.26749 | 6480 ft | 301 kts | 224° |
| 2026-04-21 13:54 | 34.84695 | -84.28441 | 6475 ft | 301 kts | 224° |
| 2026-04-21 13:55 | 34.83136 | -84.30134 | 6469 ft | 301 kts | 224° |
| 2026-04-21 13:55 | 34.81579 | -84.31846 | 6475 ft | 301 kts | 224° |
| 2026-04-21 13:55 | 34.80031 | -84.33558 | 6479 ft | 302 kts | 224° |
| 2026-04-21 13:55 | 34.78479 | -84.35276 | 6471 ft | 301 kts | 224° |
| 2026-04-21 13:56 | 34.76931 | -84.36990 | 6467 ft | 301 kts | 224° |
| 2026-04-21 13:56 | 34.75380 | -84.38705 | 6466 ft | 301 kts | 224° |
| 2026-04-21 13:56 | 34.73832 | -84.40420 | 6466 ft | 301 kts | 224° |
| 2026-04-21 13:56 | 34.72282 | -84.42137 | 6468 ft | 301 kts | 224° |
| 2026-04-21 13:57 | 34.70733 | -84.43853 | 6466 ft | 302 kts | 224° |
| 2026-04-21 13:57 | 34.69181 | -84.45570 | 6464 ft | 302 kts | 224° |
| 2026-04-21 13:57 | 34.67631 | -84.47289 | 6462 ft | 302 kts | 224° |
| 2026-04-21 13:57 | 34.66077 | -84.49013 | 6465 ft | 304 kts | 224° |
| 2026-04-21 13:58 | 34.64496 | -84.50770 | 6161 ft | 313 kts | 224° |
| 2026-04-21 13:58 | 34.62881 | -84.52566 | 5797 ft | 314 kts | 224° |
| 2026-04-21 13:58 | 34.61411 | -84.54447 | 5601 ft | 303 kts | 239° |
| 2026-04-21 13:58 | 34.60807 | -84.56833 | 5519 ft | 294 kts | 264° |
| 2026-04-21 13:59 | 34.60618 | -84.59303 | 5496 ft | 294 kts | 268° |
| 2026-04-21 13:59 | 34.60491 | -84.61782 | 5484 ft | 294 kts | 269° |
| 2026-04-21 13:59 | 34.60393 | -84.64262 | 5480 ft | 294 kts | 269° |
| 2026-04-21 13:59 | 34.60309 | -84.66744 | 5474 ft | 294 kts | 269° |
| 2026-04-21 14:00 | 34.60240 | -84.69223 | 5466 ft | 294 kts | 269° |
| 2026-04-21 14:00 | 34.60179 | -84.71701 | 5468 ft | 294 kts | 269° |
| 2026-04-21 14:00 | 34.60121 | -84.74182 | 5470 ft | 294 kts | 270° |
| 2026-04-21 14:00 | 34.60065 | -84.76663 | 5472 ft | 294 kts | 270° |
| 2026-04-21 14:01 | 34.60011 | -84.79117 | 5474 ft | 294 kts | 270° |
| 2026-04-21 14:01 | 34.59956 | -84.81634 | 5474 ft | 295 kts | 270° |
| 2026-04-21 14:01 | 34.59904 | -84.84085 | 5474 ft | 295 kts | 270° |
| 2026-04-21 14:01 | 34.59851 | -84.86569 | 5475 ft | 295 kts | 270° |
| 2026-04-21 14:02 | 34.59816 | -84.88247 | 5474 ft | 295 kts | 270° |
| 2026-04-21 14:02 | 34.59748 | -84.91541 | 5473 ft | 295 kts | 270° |
| 2026-04-21 14:02 | 34.59699 | -84.94026 | 5472 ft | 295 kts | 270° |
| 2026-04-21 14:03 | 34.59600 | -84.99001 | 5464 ft | 295 kts | 270° |
| 2026-04-21 14:03 | 34.59551 | -85.01484 | 5464 ft | 295 kts | 270° |
| 2026-04-21 14:03 | 34.59502 | -85.03973 | 5464 ft | 295 kts | 270° |
| 2026-04-21 14:03 | 34.59459 | -85.06453 | 5461 ft | 294 kts | 270° |
| 2026-04-21 14:04 | 34.59426 | -85.08931 | 5464 ft | 294 kts | 270° |
| 2026-04-21 14:04 | 34.59395 | -85.11412 | 5469 ft | 294 kts | 270° |
| 2026-04-21 14:04 | 34.59366 | -85.13895 | 5465 ft | 294 kts | 270° |
| 2026-04-21 14:04 | 34.59340 | -85.16381 | 5462 ft | 294 kts | 270° |
| 2026-04-21 14:05 | 34.59314 | -85.18876 | 5276 ft | 299 kts | 270° |
| 2026-04-21 14:05 | 34.59292 | -85.21411 | 5004 ft | 301 kts | 270° |
| 2026-04-21 14:05 | 34.59271 | -85.23950 | 4730 ft | 300 kts | 270° |
| 2026-04-21 14:05 | 34.59253 | -85.26466 | 4585 ft | 296 kts | 270° |
| 2026-04-21 14:06 | 34.59236 | -85.28956 | 4519 ft | 293 kts | 270° |
| 2026-04-21 14:06 | 34.59219 | -85.31441 | 4242 ft | 296 kts | 270° |
| 2026-04-21 14:06 | 34.59205 | -85.33936 | 3972 ft | 295 kts | 270° |
| 2026-04-21 14:06 | 34.59193 | -85.36421 | 3722 ft | 293 kts | 270° |
| 2026-04-21 14:07 | 34.59183 | -85.38881 | 3595 ft | 289 kts | 270° |
| 2026-04-21 14:07 | 34.59173 | -85.41307 | 3513 ft | 286 kts | 270° |
| 2026-04-21 14:07 | 34.59167 | -85.43710 | 3508 ft | 283 kts | 270° |
| 2026-04-21 14:07 | 34.59166 | -85.46096 | 3481 ft | 283 kts | 270° |
| 2026-04-21 14:08 | 34.59169 | -85.48478 | 3466 ft | 282 kts | 270° |
| 2026-04-21 14:08 | 34.59102 | -85.50834 | 3459 ft | 277 kts | 261° |
| 2026-04-21 14:08 | 34.58210 | -85.52847 | 3448 ft | 280 kts | 226° |
| 2026-04-21 14:08 | 34.56460 | -85.53905 | 3453 ft | 285 kts | 191° |
| 2026-04-21 14:09 | 34.54515 | -85.53871 | 3469 ft | 286 kts | 176° |
| 2026-04-21 14:09 | 34.52527 | -85.53607 | 3471 ft | 287 kts | 174° |
| 2026-04-21 14:09 | 34.50552 | -85.53304 | 3452 ft | 288 kts | 174° |
| 2026-04-21 14:09 | 34.48561 | -85.52964 | 3462 ft | 290 kts | 173° |
| 2026-04-21 14:10 | 34.46563 | -85.52601 | 3465 ft | 291 kts | 173° |
| 2026-04-21 14:10 | 34.44559 | -85.52229 | 3462 ft | 291 kts | 173° |
| 2026-04-21 14:10 | 34.42558 | -85.51854 | 3509 ft | 288 kts | 173° |
| 2026-04-21 14:10 | 34.40577 | -85.51464 | 3472 ft | 290 kts | 173° |
| 2026-04-21 14:11 | 34.38579 | -85.51094 | 3464 ft | 290 kts | 173° |
| 2026-04-21 14:11 | 34.36585 | -85.50746 | 3466 ft | 290 kts | 173° |
| 2026-04-21 14:11 | 34.34583 | -85.50388 | 3467 ft | 291 kts | 173° |
| 2026-04-21 14:11 | 34.32577 | -85.50026 | 3464 ft | 291 kts | 173° |
| 2026-04-21 14:12 | 34.30570 | -85.49666 | 3463 ft | 292 kts | 173° |
| 2026-04-21 14:12 | 34.28566 | -85.49306 | 3469 ft | 292 kts | 173° |
| 2026-04-21 14:12 | 34.26554 | -85.48947 | 3468 ft | 292 kts | 173° |
| 2026-04-21 14:12 | 34.24550 | -85.48592 | 3484 ft | 290 kts | 173° |
| 2026-04-21 14:13 | 34.22549 | -85.48239 | 3468 ft | 292 kts | 173° |
| 2026-04-21 14:13 | 34.20543 | -85.47885 | 3445 ft | 287 kts | 174° |
| 2026-04-21 14:13 | 34.18565 | -85.47554 | 3463 ft | 287 kts | 173° |
| 2026-04-21 14:13 | 34.16581 | -85.47186 | 3478 ft | 290 kts | 172° |
| 2026-04-21 14:14 | 34.14588 | -85.46817 | 3481 ft | 289 kts | 172° |
| 2026-04-21 14:14 | 34.12594 | -85.46460 | 3488 ft | 291 kts | 173° |
| 2026-04-21 14:14 | 34.10589 | -85.46116 | 3470 ft | 290 kts | 173° |
| 2026-04-21 14:14 | 34.08589 | -85.45766 | 3453 ft | 291 kts | 173° |
| 2026-04-21 14:15 | 34.06584 | -85.45426 | 3452 ft | 291 kts | 173° |
| 2026-04-21 14:15 | 34.04577 | -85.45086 | 3451 ft | 291 kts | 173° |
| 2026-04-21 14:15 | 34.02571 | -85.44747 | 3450 ft | 291 kts | 173° |
| 2026-04-21 14:15 | 34.00568 | -85.44406 | 3454 ft | 289 kts | 173° |
| 2026-04-21 14:16 | 33.99263 | -85.44190 | 3463 ft | 285 kts | 173° |
| 2026-04-21 14:16 | 33.96609 | -85.43744 | 3454 ft | 290 kts | 173° |
| 2026-04-21 14:16 | 33.95289 | -85.43517 | 3456 ft | 290 kts | 173° |
| 2026-04-21 14:16 | 33.93288 | -85.43178 | 3467 ft | 290 kts | 173° |
| 2026-04-21 14:17 | 33.91286 | -85.42841 | 3461 ft | 291 kts | 173° |
| 2026-04-21 14:17 | 33.89279 | -85.42497 | 3458 ft | 292 kts | 173° |
| 2026-04-21 14:17 | 33.87265 | -85.42156 | 3459 ft | 293 kts | 173° |
| 2026-04-21 14:17 | 33.85246 | -85.41821 | 3455 ft | 293 kts | 173° |
| 2026-04-21 14:18 | 33.83245 | -85.41482 | 3467 ft | 284 kts | 171° |
| 2026-04-21 14:18 | 33.81268 | -85.41125 | 3465 ft | 290 kts | 173° |
| 2026-04-21 14:18 | 33.79258 | -85.40816 | 3484 ft | 292 kts | 174° |
| 2026-04-21 14:18 | 33.77249 | -85.40529 | 3466 ft | 292 kts | 173° |
| 2026-04-21 14:19 | 33.75232 | -85.40216 | 3457 ft | 293 kts | 173° |
| 2026-04-21 14:19 | 33.73212 | -85.39892 | 3470 ft | 293 kts | 173° |
| 2026-04-21 14:19 | 33.71195 | -85.39573 | 3464 ft | 293 kts | 173° |
| 2026-04-21 14:19 | 33.69172 | -85.39247 | 3461 ft | 293 kts | 173° |
| 2026-04-21 14:20 | 33.67183 | -85.38929 | 3485 ft | 290 kts | 173° |
| 2026-04-21 14:20 | 33.65174 | -85.38618 | 3464 ft | 291 kts | 173° |
| 2026-04-21 14:20 | 33.63180 | -85.38271 | 3463 ft | 291 kts | 172° |
| 2026-04-21 14:20 | 33.61174 | -85.37945 | 3486 ft | 291 kts | 173° |
| 2026-04-21 14:21 | 33.59172 | -85.37639 | 3503 ft | 288 kts | 173° |
| 2026-04-21 14:21 | 33.57173 | -85.37333 | 3489 ft | 291 kts | 173° |
| 2026-04-21 14:21 | 33.55161 | -85.37023 | 3440 ft | 292 kts | 173° |
| 2026-04-21 14:21 | 33.53165 | -85.36705 | 3480 ft | 288 kts | 172° |
| 2026-04-21 14:22 | 33.51166 | -85.36384 | 3484 ft | 291 kts | 173° |
| 2026-04-21 14:22 | 33.49175 | -85.36076 | 3498 ft | 288 kts | 173° |
| 2026-04-21 14:22 | 33.47172 | -85.35792 | 3487 ft | 291 kts | 173° |
| 2026-04-21 14:22 | 33.45152 | -85.35492 | 3459 ft | 292 kts | 173° |
| 2026-04-21 14:23 | 33.43137 | -85.35186 | 3448 ft | 292 kts | 173° |
| 2026-04-21 14:23 | 33.41124 | -85.34868 | 3468 ft | 293 kts | 173° |
| 2026-04-21 14:23 | 33.39105 | -85.34556 | 3460 ft | 293 kts | 173° |
| 2026-04-21 14:23 | 33.37081 | -85.34249 | 3468 ft | 291 kts | 173° |
| 2026-04-21 14:24 | 33.35075 | -85.33941 | 3383 ft | 288 kts | 174° |
| 2026-04-21 14:24 | 33.33081 | -85.33661 | 3431 ft | 289 kts | 173° |
| 2026-04-21 14:24 | 33.31082 | -85.33345 | 3439 ft | 290 kts | 173° |
| 2026-04-21 14:24 | 33.29076 | -85.33027 | 3451 ft | 291 kts | 173° |
| 2026-04-21 14:25 | 33.27065 | -85.32717 | 3488 ft | 292 kts | 173° |
| 2026-04-21 14:25 | 33.25048 | -85.32403 | 3460 ft | 292 kts | 173° |
| 2026-04-21 14:25 | 33.23033 | -85.32098 | 3452 ft | 293 kts | 173° |
| 2026-04-21 14:25 | 33.21022 | -85.31791 | 3430 ft | 288 kts | 173° |
| 2026-04-21 14:26 | 33.19019 | -85.31495 | 3434 ft | 291 kts | 173° |
| 2026-04-21 14:26 | 33.17010 | -85.31194 | 3441 ft | 291 kts | 173° |
| 2026-04-21 14:26 | 33.15007 | -85.30891 | 3434 ft | 290 kts | 173° |
| 2026-04-21 14:26 | 33.13038 | -85.30568 | 3538 ft | 288 kts | 173° |
| 2026-04-21 14:27 | 33.11030 | -85.30252 | 3485 ft | 293 kts | 173° |
| 2026-04-21 14:27 | 33.09005 | -85.29955 | 3461 ft | 293 kts | 173° |
| 2026-04-21 14:27 | 33.07009 | -85.29651 | 3425 ft | 295 kts | 173° |
| 2026-04-21 14:27 | 33.04963 | -85.29354 | 3241 ft | 297 kts | 173° |
| 2026-04-21 14:28 | 33.02908 | -85.29096 | 3091 ft | 296 kts | 175° |
| 2026-04-21 14:28 | 33.00901 | -85.29370 | 2896 ft | 293 kts | 201° |
| 2026-04-21 14:28 | 32.99313 | -85.30840 | 2718 ft | 289 kts | 233° |
| 2026-04-21 14:28 | 32.98170 | -85.32803 | 2566 ft | 289 kts | 237° |
| 2026-04-21 14:29 | 32.97079 | -85.34813 | 2496 ft | 288 kts | 238° |
| 2026-04-21 14:29 | 32.96012 | -85.36829 | 2464 ft | 288 kts | 239° |
| 2026-04-21 14:29 | 32.94958 | -85.38847 | 2456 ft | 287 kts | 239° |
| 2026-04-21 14:29 | 32.93909 | -85.40869 | 2447 ft | 286 kts | 239° |
| 2026-04-21 14:30 | 32.92867 | -85.42888 | 2457 ft | 286 kts | 239° |
| 2026-04-21 14:30 | 32.91838 | -85.44910 | 2451 ft | 285 kts | 239° |
| 2026-04-21 14:30 | 32.90811 | -85.46930 | 2453 ft | 285 kts | 239° |
| 2026-04-21 14:30 | 32.89788 | -85.48952 | 2451 ft | 285 kts | 239° |
| 2026-04-21 14:31 | 32.88764 | -85.50980 | 2454 ft | 286 kts | 239° |
| 2026-04-21 14:31 | 32.87741 | -85.53005 | 2454 ft | 285 kts | 239° |
| 2026-04-21 14:31 | 32.86720 | -85.55029 | 2451 ft | 285 kts | 239° |
| 2026-04-21 14:31 | 32.85700 | -85.57049 | 2444 ft | 285 kts | 239° |
| 2026-04-21 14:32 | 32.84681 | -85.59072 | 2445 ft | 285 kts | 239° |
| 2026-04-21 14:32 | 32.83660 | -85.61098 | 2443 ft | 286 kts | 239° |
| 2026-04-21 14:32 | 32.82640 | -85.63122 | 2446 ft | 285 kts | 239° |
| 2026-04-21 14:32 | 32.81620 | -85.65147 | 2449 ft | 286 kts | 239° |
| 2026-04-21 14:33 | 32.80606 | -85.67178 | 2435 ft | 287 kts | 239° |
| 2026-04-21 14:33 | 32.79592 | -85.69223 | 2437 ft | 288 kts | 239° |
| 2026-04-21 14:33 | 32.78576 | -85.71276 | 2433 ft | 288 kts | 239° |
| 2026-04-21 14:33 | 32.77563 | -85.73326 | 2447 ft | 288 kts | 239° |
| 2026-04-21 14:34 | 32.76551 | -85.75378 | 2444 ft | 288 kts | 239° |
| 2026-04-21 14:34 | 32.75541 | -85.77428 | 2443 ft | 288 kts | 239° |
| 2026-04-21 14:34 | 32.74527 | -85.79483 | 2439 ft | 288 kts | 239° |
| 2026-04-21 14:34 | 32.73515 | -85.81534 | 2447 ft | 288 kts | 239° |
| 2026-04-21 14:35 | 32.72503 | -85.83591 | 2445 ft | 288 kts | 239° |
| 2026-04-21 14:35 | 32.71491 | -85.85636 | 2443 ft | 287 kts | 239° |
| 2026-04-21 14:35 | 32.70479 | -85.87687 | 2440 ft | 288 kts | 239° |
| 2026-04-21 14:35 | 32.69468 | -85.89736 | 2442 ft | 284 kts | 238° |
| 2026-04-21 14:36 | 32.68065 | -85.91333 | 2428 ft | 281 kts | 208° |
| 2026-04-21 14:36 | 32.66297 | -85.92338 | 2436 ft | 284 kts | 204° |
| 2026-04-21 14:36 | 32.64480 | -85.93271 | 2439 ft | 285 kts | 202° |
| 2026-04-21 14:36 | 32.62642 | -85.94179 | 2438 ft | 286 kts | 202° |
| 2026-04-21 14:37 | 32.60824 | -85.95058 | 2444 ft | 286 kts | 201° |
| 2026-04-21 14:37 | 32.58977 | -85.95937 | 2453 ft | 285 kts | 201° |
| 2026-04-21 14:37 | 32.57130 | -85.96816 | 2443 ft | 286 kts | 201° |
| 2026-04-21 14:37 | 32.55282 | -85.97702 | 2435 ft | 286 kts | 201° |
| 2026-04-21 14:38 | 32.53440 | -85.98591 | 2420 ft | 286 kts | 201° |
| 2026-04-21 14:38 | 32.51595 | -85.99487 | 2438 ft | 286 kts | 201° |
| 2026-04-21 14:38 | 32.49753 | -86.00386 | 2432 ft | 287 kts | 201° |
| 2026-04-21 14:38 | 32.47930 | -86.01298 | 2460 ft | 285 kts | 202° |
| 2026-04-21 14:39 | 32.46098 | -86.02189 | 2439 ft | 286 kts | 201° |
| 2026-04-21 14:39 | 32.44244 | -86.03079 | 2436 ft | 287 kts | 201° |
| 2026-04-21 14:39 | 32.42396 | -86.03976 | 2436 ft | 286 kts | 201° |
| 2026-04-21 14:39 | 32.40557 | -86.04879 | 2429 ft | 287 kts | 201° |
| 2026-04-21 14:40 | 32.38713 | -86.05773 | 2426 ft | 285 kts | 201° |
| 2026-04-21 14:40 | 32.36882 | -86.06641 | 2417 ft | 284 kts | 201° |
| 2026-04-21 14:40 | 32.35077 | -86.07528 | 2414 ft | 278 kts | 201° |
| 2026-04-21 14:40 | 32.33266 | -86.08390 | 2430 ft | 283 kts | 201° |
| 2026-04-21 14:41 | 32.31445 | -86.09292 | 2451 ft | 285 kts | 202° |
| 2026-04-21 14:41 | 32.29613 | -86.10200 | 2447 ft | 286 kts | 201° |
| 2026-04-21 14:41 | 32.27773 | -86.11107 | 2444 ft | 286 kts | 202° |
| 2026-04-21 14:41 | 32.25946 | -86.12030 | 2437 ft | 286 kts | 202° |
| 2026-04-21 14:42 | 32.24114 | -86.12958 | 2437 ft | 287 kts | 201° |
| 2026-04-21 14:42 | 32.22283 | -86.13886 | 2429 ft | 286 kts | 202° |
| 2026-04-21 14:42 | 32.20456 | -86.14812 | 2426 ft | 285 kts | 202° |
| 2026-04-21 14:42 | 32.18631 | -86.15735 | 2431 ft | 286 kts | 202° |
| 2026-04-21 14:43 | 32.16809 | -86.16649 | 2431 ft | 284 kts | 201° |
| 2026-04-21 14:43 | 32.14995 | -86.17567 | 2457 ft | 285 kts | 202° |
| 2026-04-21 14:43 | 32.13166 | -86.18497 | 2445 ft | 286 kts | 201° |
| 2026-04-21 14:43 | 32.11338 | -86.19427 | 2431 ft | 287 kts | 201° |
| 2026-04-21 14:44 | 32.09510 | -86.20363 | 2434 ft | 286 kts | 202° |
| 2026-04-21 14:44 | 32.07685 | -86.21299 | 2429 ft | 286 kts | 202° |
| 2026-04-21 14:44 | 32.05858 | -86.22234 | 2438 ft | 285 kts | 202° |
| 2026-04-21 14:44 | 32.04209 | -86.23440 | 2427 ft | 284 kts | 217° |
| 2026-04-21 14:45 | 32.02640 | -86.24923 | 2446 ft | 287 kts | 218° |
| 2026-04-21 14:45 | 32.01097 | -86.26431 | 2435 ft | 290 kts | 218° |
| 2026-04-21 14:45 | 31.99551 | -86.27964 | 2427 ft | 291 kts | 219° |
| 2026-04-21 14:45 | 31.98020 | -86.29485 | 2422 ft | 292 kts | 219° |
| 2026-04-21 14:46 | 31.96468 | -86.31029 | 2425 ft | 292 kts | 219° |
| 2026-04-21 14:46 | 31.94916 | -86.32572 | 2424 ft | 292 kts | 219° |
| 2026-04-21 14:46 | 31.93374 | -86.34115 | 2444 ft | 288 kts | 219° |
| 2026-04-21 14:46 | 31.91854 | -86.35670 | 2449 ft | 291 kts | 219° |
| 2026-04-21 14:47 | 31.90309 | -86.37219 | 2422 ft | 292 kts | 219° |
| 2026-04-21 14:47 | 31.88759 | -86.38762 | 2414 ft | 292 kts | 218° |
| 2026-04-21 14:47 | 31.87215 | -86.40302 | 2427 ft | 290 kts | 218° |
| 2026-04-21 14:47 | 31.85670 | -86.41826 | 2419 ft | 290 kts | 219° |
| 2026-04-21 14:48 | 31.84133 | -86.43362 | 2418 ft | 290 kts | 219° |
| 2026-04-21 14:48 | 31.82595 | -86.44907 | 2439 ft | 291 kts | 219° |
| 2026-04-21 14:48 | 31.81055 | -86.46453 | 2432 ft | 291 kts | 219° |
| 2026-04-21 14:48 | 31.79532 | -86.48001 | 2461 ft | 289 kts | 219° |
| 2026-04-21 14:49 | 31.78004 | -86.49540 | 2461 ft | 289 kts | 219° |
| 2026-04-21 14:49 | 31.76460 | -86.51071 | 2439 ft | 291 kts | 219° |
| 2026-04-21 14:49 | 31.74924 | -86.52628 | 2439 ft | 292 kts | 220° |
| 2026-04-21 14:49 | 31.73391 | -86.54206 | 2449 ft | 293 kts | 220° |
| 2026-04-21 14:50 | 31.72353 | -86.55276 | 2437 ft | 293 kts | 220° |
| 2026-04-21 14:50 | 31.70357 | -86.57361 | 2430 ft | 281 kts | 221° |
| 2026-04-21 14:50 | 31.68905 | -86.58935 | 2460 ft | 287 kts | 220° |
| 2026-04-21 14:50 | 31.67398 | -86.60496 | 2433 ft | 290 kts | 219° |
| 2026-04-21 14:51 | 31.65885 | -86.62065 | 2417 ft | 291 kts | 219° |
| 2026-04-21 14:51 | 31.64378 | -86.63648 | 2399 ft | 291 kts | 220° |
| 2026-04-21 14:51 | 31.62862 | -86.65233 | 2344 ft | 292 kts | 220° |
| 2026-04-21 14:51 | 31.61337 | -86.66795 | 2336 ft | 291 kts | 218° |
| 2026-04-21 14:52 | 31.59764 | -86.68292 | 2343 ft | 291 kts | 217° |
| 2026-04-21 14:52 | 31.58176 | -86.69764 | 2377 ft | 291 kts | 217° |
| 2026-04-21 14:52 | 31.56581 | -86.71222 | 2375 ft | 290 kts | 216° |
| 2026-04-21 14:52 | 31.54875 | -86.72390 | 2376 ft | 280 kts | 193° |
| 2026-04-21 14:53 | 31.53016 | -86.72249 | 2399 ft | 267 kts | 158° |
| 2026-04-21 14:53 | 31.51269 | -86.71421 | 2448 ft | 275 kts | 154° |
| 2026-04-21 14:53 | 31.49538 | -86.70475 | 2421 ft | 274 kts | 152° |
| 2026-04-21 14:53 | 31.47816 | -86.69488 | 2510 ft | 272 kts | 152° |
| 2026-04-21 14:54 | 31.46107 | -86.68527 | 2492 ft | 276 kts | 151° |
| 2026-04-21 14:54 | 31.44418 | -86.67421 | 2456 ft | 280 kts | 147° |
| 2026-04-21 14:54 | 31.42757 | -86.66234 | 2461 ft | 279 kts | 146° |
| 2026-04-21 14:54 | 31.41121 | -86.65067 | 2420 ft | 280 kts | 146° |
| 2026-04-21 14:55 | 31.39449 | -86.63848 | 2428 ft | 278 kts | 146° |
| 2026-04-21 14:55 | 31.37808 | -86.62643 | 2397 ft | 279 kts | 146° |
| 2026-04-21 14:55 | 31.36150 | -86.61424 | 2407 ft | 285 kts | 146° |
| 2026-04-21 14:55 | 31.34456 | -86.60180 | 2402 ft | 289 kts | 146° |
| 2026-04-21 14:56 | 31.32748 | -86.58937 | 2383 ft | 287 kts | 146° |
| 2026-04-21 14:56 | 31.31092 | -86.57709 | 2389 ft | 286 kts | 146° |
| 2026-04-21 14:56 | 31.29400 | -86.56472 | 2414 ft | 288 kts | 146° |
| 2026-04-21 14:56 | 31.27691 | -86.55238 | 2409 ft | 290 kts | 146° |
| 2026-04-21 14:57 | 31.25979 | -86.54002 | 2420 ft | 289 kts | 146° |
| 2026-04-21 14:57 | 31.24273 | -86.52767 | 2434 ft | 288 kts | 146° |
| 2026-04-21 14:57 | 31.22578 | -86.51533 | 2411 ft | 287 kts | 146° |
| 2026-04-21 14:57 | 31.20873 | -86.50293 | 2414 ft | 289 kts | 146° |
| 2026-04-21 14:58 | 31.19162 | -86.49061 | 2425 ft | 289 kts | 146° |
| 2026-04-21 14:58 | 31.17447 | -86.47821 | 2412 ft | 290 kts | 146° |
| 2026-04-21 14:58 | 31.15736 | -86.46585 | 2441 ft | 289 kts | 146° |
| 2026-04-21 14:58 | 31.14038 | -86.45351 | 2473 ft | 286 kts | 147° |
| 2026-04-21 14:59 | 31.12346 | -86.44140 | 2461 ft | 288 kts | 146° |
| 2026-04-21 14:59 | 31.10631 | -86.42903 | 2441 ft | 290 kts | 146° |
| 2026-04-21 14:59 | 31.08911 | -86.41662 | 2431 ft | 291 kts | 146° |
| 2026-04-21 14:59 | 31.07199 | -86.40429 | 2401 ft | 288 kts | 146° |
| 2026-04-21 15:00 | 31.05488 | -86.39205 | 2433 ft | 288 kts | 146° |
| 2026-04-21 15:00 | 31.03785 | -86.37988 | 2467 ft | 287 kts | 146° |
| 2026-04-21 15:00 | 31.02055 | -86.36877 | 2454 ft | 283 kts | 157° |
| 2026-04-21 15:00 | 31.00058 | -86.36789 | 2449 ft | 298 kts | 191° |
| 2026-04-21 15:01 | 30.98267 | -86.38016 | 2470 ft | 306 kts | 223° |
| 2026-04-21 15:01 | 30.97229 | -86.40155 | 2456 ft | 304 kts | 250° |
| 2026-04-21 15:01 | 30.96605 | -86.42522 | 2460 ft | 307 kts | 253° |
| 2026-04-21 15:01 | 30.96053 | -86.44933 | 2477 ft | 309 kts | 255° |
| 2026-04-21 15:02 | 30.95543 | -86.47369 | 2470 ft | 310 kts | 256° |
| 2026-04-21 15:02 | 30.95017 | -86.49785 | 2455 ft | 304 kts | 251° |
| 2026-04-21 15:02 | 30.94209 | -86.52043 | 2447 ft | 303 kts | 245° |
| 2026-04-21 15:02 | 30.93352 | -86.54282 | 2481 ft | 302 kts | 244° |
| 2026-04-21 15:03 | 30.92462 | -86.56483 | 2467 ft | 306 kts | 243° |
| 2026-04-21 15:03 | 30.91563 | -86.58726 | 2480 ft | 307 kts | 244° |
| 2026-04-21 15:03 | 30.90637 | -86.60964 | 2461 ft | 307 kts | 242° |
| 2026-04-21 15:03 | 30.89660 | -86.63176 | 2461 ft | 307 kts | 241° |
| 2026-04-21 15:04 | 30.88669 | -86.65383 | 2459 ft | 309 kts | 241° |
| 2026-04-21 15:04 | 30.87664 | -86.67587 | 2449 ft | 308 kts | 240° |
| 2026-04-21 15:04 | 30.86662 | -86.69790 | 2446 ft | 308 kts | 240° |
| 2026-04-21 15:04 | 30.85660 | -86.72000 | 2449 ft | 309 kts | 240° |
| 2026-04-21 15:05 | 30.84657 | -86.74209 | 2442 ft | 310 kts | 240° |
| 2026-04-21 15:05 | 30.82652 | -86.78614 | 2444 ft | 308 kts | 240° |
| 2026-04-21 15:05 | 30.81638 | -86.80811 | 2425 ft | 309 kts | 240° |
| 2026-04-21 15:06 | 30.80966 | -86.82269 | 2430 ft | 309 kts | 240° |
| 2026-04-21 15:06 | 30.79958 | -86.84470 | 2430 ft | 307 kts | 240° |
| 2026-04-21 15:06 | 30.78959 | -86.86666 | 2433 ft | 308 kts | 240° |
| 2026-04-21 15:06 | 30.77937 | -86.88836 | 2380 ft | 308 kts | 239° |
| 2026-04-21 15:07 | 30.76892 | -86.90932 | 2127 ft | 276 kts | 237° |
| 2026-04-21 15:07 | 30.75916 | -86.92606 | 2115 ft | 218 kts | 235° |
| 2026-04-21 15:07 | 30.75138 | -86.93972 | 1956 ft | 201 kts | 237° |
| 2026-04-21 15:07 | 30.74483 | -86.95180 | 1711 ft | 148 kts | 238° |
| 2026-04-21 15:08 | 30.73888 | -86.96249 | 1582 ft | 163 kts | 236° |
| 2026-04-21 15:08 | 30.73298 | -86.97187 | 1446 ft | 113 kts | 231° |
| 2026-04-21 15:08 | 30.72850 | -86.97766 | 1210 ft | 92 kts | 226° |
| 2026-04-21 15:08 | 30.72401 | -86.98299 | 967 ft | 93 kts | 225° |
| 2026-04-21 15:09 | 30.71950 | -86.98826 | 791 ft | 91 kts | 226° |
| 2026-04-21 15:09 | 30.71521 | -86.99364 | 637 ft | 91 kts | 227° |
| 2026-04-21 15:09 | 30.71089 | -86.99901 | 482 ft | 90 kts | 227° |
| 2026-04-21 15:09 | 30.70684 | -87.00413 | 281 ft | 81 kts | 225° |
| 2026-04-21 15:10 | 30.70324 | -87.00853 | 175 ft | 66 kts | 227° |
| 2026-04-21 15:10 | 30.70084 | -87.01161 | 179 ft | 33 kts | 239° |
| 2026-04-21 15:10 | 30.70036 | -87.01362 | 180 ft | 21 kts | 256° |
| 2026-04-21 15:10 | 30.70026 | -87.01500 | 177 ft | 6 kts | 244° |
| 2026-04-21 15:11 | 30.70016 | -87.01510 | 177 ft | 1 kts | 187° |
| 2026-04-21 15:11 | 30.70001 | -87.01510 | 177 ft | 0 kts | 181° |